Terminal Aerodrome Forecast
Issued by NWS Sioux Falls, SD

Home | Current Version | Previous Version | Text Only | Print | Product List | Glossary On
Versions: 1 2 3 4 5 6 7 8 9 10 11 12 13 14 15 16 17 18 19 20 21 22 23 24 25 26 27 28 29
000
FTUS43 KFSD 302342
TAFSUX
TAF
KSUX 302342Z 3100/3124 15009KT P6SM SCT250
     FM310600 VRB04KT P6SM BKN200
     FM311500 13007KT P6SM SCT008 OVC012
     FM311900 10008KT 5SM -RASN SCT008 OVC012
     FM312200 09010KT 2SM -SN OVC008=

USA.gov is the U.S. government's official web portal to all federal, state and local government web resources and services.